createdAt,value
2019-03-27T00:00:21.500Z,33.30
2019-03-27T00:01:21.470Z,34.30
2019-03-27T00:02:21.442Z,44.90
2019-03-27T00:03:21.414Z,40.10
2019-03-27T00:04:21.376Z,39.80
2019-03-27T00:05:21.347Z,43.00
2019-03-27T00:06:21.316Z,35.40
2019-03-27T00:07:21.287Z,36.40
2019-03-27T00:08:21.257Z,33.30
2019-03-27T00:09:21.225Z,39.30
2019-03-27T00:10:21.198Z,38.90
2019-03-27T00:11:21.165Z,41.80
2019-03-27T00:12:21.134Z,40.30
2019-03-27T00:13:21.106Z,34.00
2019-03-27T00:14:21.075Z,36.50
2019-03-27T00:15:21.043Z,45.20
2019-03-27T00:16:21.013Z,42.70
2019-03-27T00:17:20.983Z,39.90
2019-03-27T00:18:20.954Z,39.00
2019-03-27T00:19:20.925Z,33.40
2019-03-27T00:20:20.899Z,34.20
2019-03-27T00:21:20.865Z,36.70
2019-03-27T00:22:20.835Z,43.00
2019-03-27T00:23:20.802Z,39.20
2019-03-27T00:24:20.772Z,36.90
2019-03-27T00:25:20.740Z,41.40
2019-03-27T00:26:20.712Z,46.30
2019-03-27T00:27:20.679Z,43.30
2019-03-27T00:28:20.651Z,44.90
2019-03-27T00:29:20.620Z,41.60
2019-03-27T00:30:20.590Z,44.40
2019-03-27T00:31:20.627Z,42.10
2019-03-27T00:32:20.529Z,42.80
2019-03-27T00:33:20.499Z,38.90
2019-03-27T00:34:20.470Z,40.20
2019-03-27T00:35:20.437Z,48.30
2019-03-27T00:36:20.410Z,39.30
2019-03-27T00:37:20.379Z,39.90
2019-03-27T00:38:20.348Z,36.20
2019-03-27T00:39:20.317Z,39.30
2019-03-27T00:40:20.287Z,39.60
2019-03-27T00:41:20.257Z,45.00
2019-03-27T00:42:20.232Z,53.80
2019-03-27T00:43:20.200Z,47.00
2019-03-27T00:44:20.167Z,40.20
2019-03-27T00:45:26.629Z,43.10
2019-03-27T00:46:20.108Z,43.10
2019-03-27T00:47:20.077Z,41.90
2019-03-27T00:48:20.046Z,35.20
2019-03-27T00:49:20.018Z,47.90
2019-03-27T00:50:19.986Z,36.20
2019-03-27T00:51:19.956Z,45.50
2019-03-27T00:52:19.925Z,41.20
2019-03-27T00:53:19.896Z,32.30
2019-03-27T00:54:19.868Z,36.20
2019-03-27T00:55:19.837Z,37.50
2019-03-27T00:56:19.807Z,31.60
2019-03-27T00:57:19.775Z,39.30
2019-03-27T00:58:19.745Z,42.40
2019-03-27T00:59:19.716Z,39.10
2019-03-27T01:00:19.685Z,43.60
2019-03-27T01:01:19.654Z,42.30
2019-03-27T01:02:19.624Z,48.10
2019-03-27T01:03:19.592Z,49.90
2019-03-27T01:04:19.563Z,42.20
2019-03-27T01:05:19.532Z,41.90
2019-03-27T01:06:19.504Z,41.70
2019-03-27T01:07:19.471Z,43.20
2019-03-27T01:08:19.440Z,46.70
2019-03-27T01:09:19.411Z,41.70
2019-03-27T01:10:19.380Z,38.90
2019-03-27T01:11:19.352Z,35.50
2019-03-27T01:12:19.319Z,38.30
2019-03-27T01:13:19.290Z,34.40
2019-03-27T01:14:19.258Z,36.50
2019-03-27T01:15:19.226Z,36.10
2019-03-27T01:16:19.196Z,38.80
2019-03-27T01:17:19.165Z,36.00
2019-03-27T01:18:19.136Z,32.60
2019-03-27T01:19:19.105Z,39.00
2019-03-27T01:20:19.074Z,37.60
2019-03-27T01:21:19.044Z,36.80
2019-03-27T01:22:19.015Z,40.40
2019-03-27T01:23:18.982Z,39.50
2019-03-27T01:24:18.952Z,36.20
2019-03-27T01:25:18.922Z,36.60
2019-03-27T01:26:18.892Z,41.40
2019-03-27T01:27:18.860Z,37.40
2019-03-27T01:28:18.830Z,34.40
2019-03-27T01:29:18.799Z,36.70
2019-03-27T01:30:18.772Z,30.40
2019-03-27T01:31:18.739Z,36.20
2019-03-27T01:32:18.707Z,36.50
2019-03-27T01:33:18.680Z,35.00
2019-03-27T01:34:18.646Z,33.00
2019-03-27T01:35:18.616Z,37.60
2019-03-27T01:36:18.585Z,35.50
2019-03-27T01:37:18.553Z,37.90
2019-03-27T01:38:18.525Z,29.90
2019-03-27T01:39:18.493Z,37.30
2019-03-27T01:40:18.465Z,34.30
2019-03-27T01:41:18.431Z,36.20
2019-03-27T01:42:18.402Z,32.00
2019-03-27T01:43:18.370Z,25.40
2019-03-27T01:44:18.340Z,27.80
2019-03-27T01:45:18.310Z,32.00
2019-03-27T01:46:18.279Z,32.00
2019-03-27T01:47:18.249Z,38.50
2019-03-27T01:48:18.218Z,30.30
2019-03-27T01:49:18.187Z,30.90
2019-03-27T01:50:18.157Z,31.90
2019-03-27T01:51:18.126Z,31.40
2019-03-27T01:52:18.096Z,31.60
2019-03-27T01:53:18.066Z,30.00
2019-03-27T01:54:18.036Z,32.90
2019-03-27T01:55:18.003Z,28.10
2019-03-27T01:56:17.974Z,37.10
2019-03-27T01:57:17.943Z,31.00
2019-03-27T01:58:17.913Z,26.30
2019-03-27T01:59:17.882Z,31.40
2019-03-27T02:00:17.853Z,24.40
2019-03-27T02:01:17.822Z,22.70
2019-03-27T02:02:17.792Z,32.50
2019-03-27T02:03:17.759Z,29.00
2019-03-27T02:04:17.735Z,30.00
2019-03-27T02:05:17.701Z,34.20
2019-03-27T02:06:17.677Z,34.00
2019-03-27T02:07:17.639Z,32.00
2019-03-27T02:08:17.609Z,26.50
2019-03-27T02:09:17.580Z,25.10
2019-03-27T02:10:17.556Z,30.00
2019-03-27T02:11:17.517Z,24.60
2019-03-27T02:12:17.487Z,31.60
2019-03-27T02:13:17.457Z,25.90
2019-03-27T02:14:17.430Z,27.90
2019-03-27T02:15:17.395Z,34.50
2019-03-27T02:16:17.367Z,35.20
2019-03-27T02:17:17.335Z,32.20
2019-03-27T02:18:17.305Z,28.00
2019-03-27T02:19:17.274Z,33.60
2019-03-27T02:20:17.245Z,33.70
2019-03-27T02:21:17.214Z,24.00
2019-03-27T02:22:17.184Z,27.90
2019-03-27T02:23:17.155Z,31.90
2019-03-27T02:24:17.123Z,31.00
2019-03-27T02:25:17.092Z,32.10
2019-03-27T02:26:17.064Z,32.80
2019-03-27T02:27:17.030Z,25.40
2019-03-27T02:28:17.002Z,29.50
2019-03-27T02:29:16.971Z,26.30
2019-03-27T02:30:16.948Z,34.30
2019-03-27T02:31:16.917Z,23.00
2019-03-27T02:32:20.390Z,31.70
2019-03-27T02:33:16.864Z,34.60
2019-03-27T02:34:16.821Z,38.30
2019-03-27T02:35:16.798Z,28.20
2019-03-27T02:36:16.764Z,27.10
2019-03-27T02:37:16.733Z,28.50
2019-03-27T02:38:16.700Z,33.70
2019-03-27T02:39:16.676Z,35.70
2019-03-27T02:40:16.637Z,34.50
2019-03-27T02:41:16.612Z,33.70
2019-03-27T02:42:16.578Z,30.30
2019-03-27T02:43:16.546Z,33.80
2019-03-27T02:44:16.515Z,28.80
2019-03-27T02:45:16.484Z,29.00
2019-03-27T02:46:24.632Z,34.10
2019-03-27T02:47:16.422Z,31.70
2019-03-27T02:48:16.484Z,36.90
2019-03-27T02:49:16.362Z,31.70
2019-03-27T02:50:16.334Z,29.30
2019-03-27T02:51:16.300Z,37.20
2019-03-27T02:52:16.272Z,40.80
2019-03-27T02:53:16.241Z,33.90
2019-03-27T02:54:16.210Z,27.20
2019-03-27T02:55:16.179Z,29.20
2019-03-27T02:56:16.151Z,31.40
2019-03-27T02:57:16.118Z,28.50
2019-03-27T02:58:16.086Z,32.40
2019-03-27T02:59:16.055Z,30.30
2019-03-27T03:00:16.025Z,26.40
2019-03-27T03:01:15.994Z,32.50
2019-03-27T03:02:16.088Z,29.40
2019-03-27T03:03:15.932Z,33.20
2019-03-27T03:04:15.900Z,33.60
2019-03-27T03:05:15.876Z,30.00
2019-03-27T03:06:15.841Z,30.10
2019-03-27T03:07:15.809Z,33.30
2019-03-27T03:08:15.797Z,29.00
2019-03-27T03:09:15.748Z,33.80
2019-03-27T03:10:15.717Z,35.70
2019-03-27T03:11:15.685Z,34.10
2019-03-27T03:12:15.657Z,30.60
2019-03-27T03:13:15.628Z,36.90
2019-03-27T03:14:15.595Z,34.20
2019-03-27T03:15:15.563Z,33.00
2019-03-27T03:16:15.534Z,27.30
2019-03-27T03:17:15.507Z,31.10
2019-03-27T03:18:15.476Z,32.00
2019-03-27T03:19:15.441Z,23.80
2019-03-27T03:20:15.417Z,37.60
2019-03-27T03:21:15.382Z,28.40
2019-03-27T03:22:15.352Z,32.20
2019-03-27T03:23:15.317Z,25.90
2019-03-27T03:24:15.299Z,23.50
2019-03-27T03:25:15.262Z,26.00
2019-03-27T03:26:15.229Z,25.90
2019-03-27T03:27:15.196Z,28.60
2019-03-27T03:28:15.170Z,29.80
2019-03-27T03:29:15.136Z,29.50
2019-03-27T03:30:15.105Z,26.80
2019-03-27T03:31:15.080Z,27.80
2019-03-27T03:32:15.044Z,34.10
2019-03-27T03:33:15.014Z,35.20
2019-03-27T03:34:14.985Z,28.60
2019-03-27T03:35:14.952Z,34.00
2019-03-27T03:36:14.942Z,29.50
2019-03-27T03:37:14.910Z,36.60
2019-03-27T03:38:14.923Z,22.90
2019-03-27T03:39:14.836Z,33.90
2019-03-27T03:40:14.807Z,29.30
2019-03-27T03:41:14.771Z,31.10
2019-03-27T03:42:14.738Z,31.30
2019-03-27T03:43:14.705Z,29.50
2019-03-27T03:44:14.674Z,36.60
2019-03-27T03:45:14.645Z,29.30
2019-03-27T03:46:14.615Z,28.00
2019-03-27T03:47:14.582Z,33.00
2019-03-27T03:48:14.552Z,24.50
2019-03-27T03:49:14.522Z,34.50
2019-03-27T03:50:14.494Z,37.00
2019-03-27T03:51:14.462Z,30.10
2019-03-27T03:52:14.433Z,26.30
2019-03-27T03:53:14.401Z,23.40
2019-03-27T03:54:14.372Z,25.00
2019-03-27T03:55:14.340Z,28.50
2019-03-27T03:56:14.313Z,30.10
2019-03-27T03:57:14.281Z,31.90
2019-03-27T03:58:14.262Z,30.90
2019-03-27T03:59:14.220Z,31.80
2019-03-27T04:00:14.188Z,32.80
2019-03-27T04:01:14.159Z,30.70
2019-03-27T04:02:14.128Z,35.60
2019-03-27T04:03:14.101Z,30.30
2019-03-27T04:04:14.066Z,25.80
2019-03-27T04:05:14.036Z,26.50
2019-03-27T04:06:14.055Z,31.90
2019-03-27T04:07:13.976Z,32.90
2019-03-27T04:08:13.944Z,29.60
2019-03-27T04:09:13.915Z,24.50
2019-03-27T04:10:13.885Z,29.60
2019-03-27T04:11:13.859Z,32.70
2019-03-27T04:12:13.822Z,27.20
2019-03-27T04:13:13.816Z,25.90
2019-03-27T04:14:13.765Z,27.40
2019-03-27T04:15:13.732Z,29.00
2019-03-27T04:16:13.704Z,28.70
2019-03-27T04:17:17.519Z,26.10
2019-03-27T04:18:13.647Z,32.00
2019-03-27T04:19:13.608Z,28.50
2019-03-27T04:20:13.584Z,31.50
2019-03-27T04:21:13.547Z,24.60
2019-03-27T04:22:13.517Z,31.90
2019-03-27T04:23:13.490Z,28.80
2019-03-27T04:24:13.458Z,28.70
2019-03-27T04:25:13.428Z,30.50
2019-03-27T04:26:13.397Z,28.30
2019-03-27T04:27:13.365Z,30.00
2019-03-27T04:28:13.340Z,30.30
2019-03-27T04:29:13.371Z,33.70
2019-03-27T04:30:13.274Z,38.60
2019-03-27T04:31:13.284Z,26.90
2019-03-27T04:32:13.213Z,29.70
2019-03-27T04:33:13.182Z,32.10
2019-03-27T04:34:13.153Z,24.60
2019-03-27T04:35:13.120Z,33.30
2019-03-27T04:36:13.094Z,29.60
2019-03-27T04:37:13.060Z,25.90
2019-03-27T04:38:13.031Z,29.50
2019-03-27T04:39:13.000Z,28.80
2019-03-27T04:40:12.971Z,23.90
2019-03-27T04:41:12.942Z,29.00
2019-03-27T04:42:12.908Z,26.40
2019-03-27T04:43:12.878Z,24.90
2019-03-27T04:44:12.849Z,30.20
2019-03-27T04:45:12.820Z,35.50
2019-03-27T04:46:12.789Z,32.00
2019-03-27T04:47:12.771Z,26.60
2019-03-27T04:48:12.727Z,26.20
2019-03-27T04:49:12.697Z,24.20
2019-03-27T04:50:12.666Z,29.60
2019-03-27T04:51:12.636Z,28.00
2019-03-27T04:52:12.604Z,32.30
2019-03-27T04:53:12.576Z,29.10
2019-03-27T04:54:12.547Z,27.00
2019-03-27T04:55:12.515Z,33.30
2019-03-27T04:56:12.484Z,28.40
2019-03-27T04:57:12.455Z,27.00
2019-03-27T04:58:12.427Z,37.30
2019-03-27T04:59:12.395Z,34.90
2019-03-27T05:00:12.365Z,34.70
2019-03-27T05:01:12.337Z,36.30
2019-03-27T05:02:12.305Z,32.10
2019-03-27T05:03:12.274Z,32.50
2019-03-27T05:04:12.244Z,30.50
2019-03-27T05:05:12.215Z,30.00
2019-03-27T05:06:12.187Z,33.60
2019-03-27T05:07:13.711Z,28.60
2019-03-27T05:08:12.123Z,29.90
2019-03-27T05:09:12.102Z,29.80
2019-03-27T05:10:12.066Z,33.80
2019-03-27T05:11:12.033Z,28.00
2019-03-27T05:12:12.003Z,31.00
2019-03-27T05:13:11.975Z,34.60
2019-03-27T05:14:11.944Z,25.70
2019-03-27T05:15:11.912Z,29.10
2019-03-27T05:16:11.887Z,33.80
2019-03-27T05:17:11.853Z,31.30
2019-03-27T05:18:11.824Z,29.10
2019-03-27T05:19:11.794Z,26.50
2019-03-27T05:20:11.765Z,31.30
2019-03-27T05:21:11.732Z,27.90
2019-03-27T05:22:11.703Z,29.70
2019-03-27T05:23:11.675Z,31.40
2019-03-27T05:24:11.642Z,32.40
2019-03-27T05:25:11.638Z,28.40
2019-03-27T05:26:11.585Z,27.10
2019-03-27T05:27:11.552Z,28.80
2019-03-27T05:28:11.524Z,29.60
2019-03-27T05:29:11.574Z,29.70
2019-03-27T05:30:11.466Z,28.70
2019-03-27T05:31:11.432Z,34.70
2019-03-27T05:32:11.401Z,24.90
2019-03-27T05:33:11.373Z,29.90
2019-03-27T05:34:11.343Z,27.20
2019-03-27T05:35:11.318Z,34.40
2019-03-27T05:36:11.284Z,28.60
2019-03-27T05:37:11.253Z,34.90
2019-03-27T05:38:11.223Z,31.90
2019-03-27T05:39:14.436Z,32.00
2019-03-27T05:40:11.164Z,32.90
2019-03-27T05:41:11.137Z,28.70
2019-03-27T05:42:11.103Z,33.10
2019-03-27T05:43:11.072Z,31.00
2019-03-27T05:44:11.042Z,30.10
2019-03-27T05:45:11.013Z,30.10
2019-03-27T05:46:10.984Z,27.40
2019-03-27T05:47:10.953Z,30.50
2019-03-27T05:48:10.923Z,31.20
2019-03-27T05:49:10.893Z,34.00
2019-03-27T05:50:10.867Z,31.40
2019-03-27T05:51:10.833Z,32.80
2019-03-27T05:52:10.802Z,29.20
2019-03-27T05:53:10.773Z,30.90
2019-03-27T05:54:10.743Z,23.20
2019-03-27T05:55:10.715Z,27.40
2019-03-27T05:56:10.684Z,29.30
2019-03-27T05:57:10.652Z,28.00
2019-03-27T05:58:10.625Z,28.20
2019-03-27T05:59:10.592Z,28.80
2019-03-27T06:00:10.561Z,22.80
2019-03-27T06:01:10.536Z,29.60
2019-03-27T06:02:10.504Z,32.00
2019-03-27T06:03:10.473Z,29.10
2019-03-27T06:04:10.443Z,25.30
2019-03-27T06:05:10.412Z,35.90
2019-03-27T06:06:10.384Z,28.00
2019-03-27T06:07:10.355Z,28.40
2019-03-27T06:08:10.327Z,31.90
2019-03-27T06:09:10.296Z,23.20
2019-03-27T06:10:10.267Z,23.60
2019-03-27T06:11:10.239Z,30.00
2019-03-27T06:12:10.204Z,25.80
2019-03-27T06:13:10.175Z,23.70
2019-03-27T06:14:10.153Z,33.70
2019-03-27T06:15:10.117Z,25.20
2019-03-27T06:16:10.087Z,28.40
2019-03-27T06:17:10.057Z,30.50
2019-03-27T06:18:13.423Z,27.40
2019-03-27T06:19:09.996Z,29.30
2019-03-27T06:20:09.968Z,26.90
2019-03-27T06:21:09.939Z,21.30
2019-03-27T06:22:09.910Z,21.50
2019-03-27T06:23:09.882Z,20.60
2019-03-27T06:24:09.849Z,24.60
2019-03-27T06:25:09.821Z,29.30
2019-03-27T06:26:09.790Z,25.60
2019-03-27T06:27:09.760Z,22.70
2019-03-27T06:28:09.732Z,21.10
2019-03-27T06:29:09.702Z,20.70
2019-03-27T06:30:09.674Z,22.60
2019-03-27T06:31:09.657Z,25.50
2019-03-27T06:32:09.616Z,23.20
2019-03-27T06:33:09.585Z,21.50
2019-03-27T06:34:09.557Z,23.60
2019-03-27T06:35:09.526Z,24.90
2019-03-27T06:36:09.497Z,20.30
2019-03-27T06:37:09.469Z,25.30
2019-03-27T06:38:09.439Z,23.70
2019-03-27T06:39:09.411Z,24.70
2019-03-27T06:40:09.382Z,26.50
2019-03-27T06:41:09.352Z,19.50
2019-03-27T06:42:09.323Z,26.30
2019-03-27T06:43:09.293Z,28.10
2019-03-27T06:44:09.266Z,24.60
2019-03-27T06:45:09.236Z,24.80
2019-03-27T06:46:09.206Z,22.90
2019-03-27T06:47:09.193Z,20.80
2019-03-27T06:48:09.149Z,21.20
2019-03-27T06:49:09.120Z,26.20
2019-03-27T06:50:09.095Z,21.90
2019-03-27T06:51:09.066Z,26.10
2019-03-27T06:52:09.034Z,23.60
2019-03-27T06:53:09.005Z,20.00
2019-03-27T06:54:08.976Z,23.80
2019-03-27T06:55:08.949Z,27.40
2019-03-27T06:56:08.919Z,20.90
2019-03-27T06:57:08.890Z,26.90
2019-03-27T06:58:08.863Z,23.00
2019-03-27T06:59:08.831Z,20.90
2019-03-27T07:00:08.805Z,18.70
2019-03-27T07:01:08.776Z,22.40
2019-03-27T07:02:08.746Z,27.20
2019-03-27T07:03:08.716Z,25.50
2019-03-27T07:04:10.671Z,25.60
2019-03-27T07:05:08.662Z,23.10
2019-03-27T07:06:08.701Z,22.50
2019-03-27T07:07:08.601Z,25.80
2019-03-27T07:08:08.573Z,29.20
2019-03-27T07:09:08.545Z,27.50
2019-03-27T07:10:08.520Z,25.50
2019-03-27T07:11:08.487Z,32.50
2019-03-27T07:12:20.410Z,25.20
2019-03-27T07:13:08.437Z,27.00
2019-03-27T07:14:08.403Z,29.10
2019-03-27T07:15:08.373Z,25.80
2019-03-27T07:16:08.343Z,25.00
2019-03-27T07:17:08.316Z,25.20
2019-03-27T07:18:08.294Z,20.30
2019-03-27T07:19:08.260Z,24.00
2019-03-27T07:20:08.234Z,22.60
2019-03-27T07:21:08.209Z,22.80
2019-03-27T07:22:08.174Z,22.80
2019-03-27T07:23:08.146Z,30.70
2019-03-27T07:24:08.118Z,21.60
2019-03-27T07:25:08.090Z,23.40
2019-03-27T07:26:08.064Z,23.60
2019-03-27T07:27:08.039Z,26.30
2019-03-27T07:28:08.004Z,25.90
2019-03-27T07:29:07.978Z,24.00
2019-03-27T07:30:08.068Z,25.80
2019-03-27T07:31:07.921Z,23.40
2019-03-27T07:32:07.894Z,23.70
2019-03-27T07:33:07.867Z,24.40
2019-03-27T07:34:07.838Z,26.20
2019-03-27T07:35:07.810Z,27.80
2019-03-27T07:36:07.782Z,28.10
2019-03-27T07:37:07.755Z,28.10
2019-03-27T07:38:07.786Z,30.10
2019-03-27T07:39:11.144Z,21.30
2019-03-27T07:40:07.671Z,24.30
2019-03-27T07:41:07.648Z,27.30
2019-03-27T07:42:07.614Z,25.00
2019-03-27T07:43:07.589Z,24.30
2019-03-27T07:44:07.559Z,27.80
2019-03-27T07:45:07.532Z,29.40
2019-03-27T07:46:07.503Z,24.90
2019-03-27T07:47:07.474Z,24.20
2019-03-27T07:48:07.449Z,27.30
2019-03-27T07:49:07.420Z,35.10
2019-03-27T07:50:07.392Z,22.30
2019-03-27T07:51:07.364Z,22.70
2019-03-27T07:52:07.337Z,24.90
2019-03-27T07:53:07.309Z,26.30
2019-03-27T07:54:07.282Z,26.80
2019-03-27T07:55:18.688Z,21.00
2019-03-27T07:56:07.226Z,26.00
2019-03-27T07:57:07.197Z,26.40
2019-03-27T07:58:07.169Z,23.60
2019-03-27T07:59:07.141Z,22.60
2019-03-27T08:00:07.115Z,22.50
2019-03-27T08:01:07.088Z,20.60
2019-03-27T08:02:07.060Z,21.90
2019-03-27T08:03:07.031Z,21.80
2019-03-27T08:04:07.004Z,22.60
2019-03-27T08:05:06.978Z,25.10
2019-03-27T08:06:06.950Z,22.10
2019-03-27T08:07:06.922Z,18.90
2019-03-27T08:08:06.898Z,26.80
2019-03-27T08:09:06.867Z,20.10
2019-03-27T08:10:06.839Z,22.30
2019-03-27T08:11:06.812Z,24.20
2019-03-27T08:12:06.797Z,17.20
2019-03-27T08:13:06.774Z,20.40
2019-03-27T08:14:06.732Z,27.10
2019-03-27T08:15:06.703Z,21.80
2019-03-27T08:16:06.675Z,19.60
2019-03-27T08:17:06.648Z,21.20
2019-03-27T08:18:06.622Z,21.70
2019-03-27T08:19:08.018Z,17.10
2019-03-27T08:20:06.569Z,22.40
2019-03-27T08:21:06.540Z,23.30
2019-03-27T08:22:06.512Z,20.20
2019-03-27T08:23:06.484Z,19.60
2019-03-27T08:24:06.459Z,17.90
2019-03-27T08:25:06.429Z,17.70
2019-03-27T08:26:06.402Z,20.70
2019-03-27T08:27:06.374Z,16.90
2019-03-27T08:28:06.349Z,22.90
2019-03-27T08:29:06.319Z,21.30
2019-03-27T08:30:06.292Z,19.80
2019-03-27T08:31:06.266Z,20.80
2019-03-27T08:32:06.237Z,19.10
2019-03-27T08:33:06.211Z,19.20
2019-03-27T08:34:06.183Z,17.80
2019-03-27T08:35:06.157Z,17.90
2019-03-27T08:36:06.130Z,21.10
2019-03-27T08:37:06.103Z,22.30
2019-03-27T08:38:06.076Z,19.20
2019-03-27T08:39:06.047Z,17.80
2019-03-27T08:40:06.020Z,21.00
2019-03-27T08:41:05.996Z,19.80
2019-03-27T08:42:05.965Z,21.80
2019-03-27T08:43:05.938Z,21.50
2019-03-27T08:44:05.916Z,17.50
2019-03-27T08:45:05.885Z,16.90
2019-03-27T08:46:05.860Z,22.10
2019-03-27T08:47:05.832Z,22.50
2019-03-27T08:48:05.803Z,15.50
2019-03-27T08:49:05.778Z,21.40
2019-03-27T08:50:05.752Z,19.80
2019-03-27T08:51:05.723Z,19.50
2019-03-27T08:52:05.698Z,18.50
2019-03-27T08:53:05.670Z,16.80
2019-03-27T08:54:05.643Z,20.30
2019-03-27T08:55:05.616Z,18.40
2019-03-27T08:56:05.590Z,21.80
2019-03-27T08:57:05.564Z,21.10
2019-03-27T08:58:05.537Z,18.90
2019-03-27T08:59:05.509Z,20.40
2019-03-27T09:00:05.484Z,24.60
2019-03-27T09:01:05.457Z,18.40
2019-03-27T09:02:05.434Z,23.20
2019-03-27T09:03:05.409Z,18.20
2019-03-27T09:04:05.379Z,18.30
2019-03-27T09:05:05.353Z,20.00
2019-03-27T09:06:05.327Z,17.80
2019-03-27T09:07:05.309Z,18.50
2019-03-27T09:08:05.274Z,18.40
2019-03-27T09:09:05.248Z,17.60
2019-03-27T09:10:05.224Z,17.20
2019-03-27T09:11:05.197Z,18.20
2019-03-27T09:12:05.170Z,15.80
2019-03-27T09:13:05.145Z,18.90
2019-03-27T09:14:05.118Z,22.40
2019-03-27T09:15:05.091Z,19.50
2019-03-27T09:16:05.066Z,20.90
2019-03-27T09:17:05.041Z,18.60
2019-03-27T09:18:05.016Z,20.50
2019-03-27T09:19:04.988Z,16.00
2019-03-27T09:20:04.966Z,18.00
2019-03-27T09:21:04.938Z,23.20
2019-03-27T09:22:04.913Z,20.40
2019-03-27T09:23:04.886Z,17.10
2019-03-27T09:24:04.859Z,16.60
2019-03-27T09:25:04.834Z,16.20
2019-03-27T09:26:04.810Z,15.70
2019-03-27T09:27:04.784Z,15.40
2019-03-27T09:28:04.759Z,14.30
2019-03-27T09:29:04.735Z,16.90
2019-03-27T09:30:04.709Z,16.40
2019-03-27T09:31:04.685Z,16.30
2019-03-27T09:32:04.658Z,13.50
2019-03-27T09:33:04.633Z,13.50
2019-03-27T09:34:04.607Z,10.80
2019-03-27T09:35:04.582Z,12.80
2019-03-27T09:36:04.602Z,14.50
2019-03-27T09:37:04.532Z,15.70
2019-03-27T09:38:04.506Z,14.20
2019-03-27T09:39:04.481Z,12.00
2019-03-27T09:40:04.455Z,14.10
2019-03-27T09:41:04.431Z,12.50
2019-03-27T09:42:04.406Z,11.80
2019-03-27T09:43:04.381Z,15.20
2019-03-27T09:44:04.356Z,11.20
2019-03-27T09:45:04.331Z,9.00
2019-03-27T09:46:04.304Z,13.10
2019-03-27T09:47:04.278Z,11.70
2019-03-27T09:48:04.255Z,11.70
2019-03-27T09:49:04.229Z,8.50
2019-03-27T09:50:04.202Z,9.60
2019-03-27T09:51:04.178Z,11.00
2019-03-27T09:52:04.154Z,11.70
2019-03-27T09:53:04.127Z,9.50
2019-03-27T09:54:04.102Z,7.90
2019-03-27T09:55:04.077Z,9.00
2019-03-27T09:56:18.081Z,12.00
2019-03-27T09:57:04.026Z,9.50
2019-03-27T09:58:04.005Z,7.90
2019-03-27T09:59:06.020Z,9.80
2019-03-27T10:00:03.952Z,6.60
2019-03-27T10:01:03.927Z,9.90
2019-03-27T10:02:03.898Z,9.40
2019-03-27T10:03:03.874Z,9.10
2019-03-27T10:04:03.845Z,9.30
2019-03-27T10:05:03.820Z,7.30
2019-03-27T10:06:03.802Z,6.00
2019-03-27T10:07:03.768Z,8.20
2019-03-27T10:08:03.748Z,5.60
2019-03-27T10:09:03.719Z,6.40
2019-03-27T10:10:03.694Z,6.40
2019-03-27T10:11:03.671Z,9.40
2019-03-27T10:12:03.643Z,6.40
2019-03-27T10:13:03.616Z,8.30
2019-03-27T10:14:03.592Z,6.90
2019-03-27T10:15:03.565Z,6.50
2019-03-27T10:16:03.541Z,8.00
2019-03-27T10:17:03.515Z,7.90
2019-03-27T10:18:03.490Z,5.20
2019-03-27T10:19:03.467Z,4.10
2019-03-27T10:20:04.356Z,6.70
2019-03-27T10:21:03.412Z,7.90
2019-03-27T10:22:03.388Z,5.80
2019-03-27T10:23:03.367Z,6.90
2019-03-27T10:24:03.342Z,10.20
2019-03-27T10:25:03.312Z,6.20
2019-03-27T10:26:03.289Z,6.90
2019-03-27T10:27:03.262Z,6.30
2019-03-27T10:28:03.237Z,6.50
2019-03-27T10:29:03.211Z,5.10
2019-03-27T10:30:03.188Z,5.70
2019-03-27T10:31:03.160Z,6.80
2019-03-27T10:32:03.139Z,6.10
2019-03-27T10:33:03.111Z,6.10
2019-03-27T10:34:03.089Z,7.30
2019-03-27T10:35:03.060Z,5.50
2019-03-27T10:36:03.037Z,7.40
2019-03-27T10:37:03.013Z,5.30
2019-03-27T10:38:02.987Z,5.30
2019-03-27T10:39:02.961Z,5.40
2019-03-27T10:40:02.942Z,6.60
2019-03-27T10:41:02.913Z,5.40
2019-03-27T10:42:02.889Z,7.90
2019-03-27T10:43:02.862Z,8.40
2019-03-27T10:44:02.839Z,5.80
2019-03-27T10:45:02.814Z,4.70
2019-03-27T10:46:02.790Z,4.40
2019-03-27T10:47:02.767Z,7.20
2019-03-27T10:48:02.742Z,5.70
2019-03-27T10:49:02.718Z,7.60
2019-03-27T10:50:16.651Z,5.70
2019-03-27T10:51:02.668Z,4.70
2019-03-27T10:52:02.644Z,5.10
2019-03-27T10:53:02.623Z,5.70
2019-03-27T10:54:02.598Z,8.80
2019-03-27T10:55:02.573Z,6.40
2019-03-27T10:56:02.550Z,7.70
2019-03-27T10:57:02.524Z,6.40
2019-03-27T10:58:02.573Z,4.70
2019-03-27T10:59:02.479Z,7.50
2019-03-27T11:00:02.455Z,4.10
2019-03-27T11:01:02.432Z,5.50
2019-03-27T11:02:02.405Z,5.20
2019-03-27T11:03:02.384Z,5.00
2019-03-27T11:04:02.356Z,5.00
2019-03-27T11:05:02.337Z,5.90
2019-03-27T11:06:02.312Z,6.30
2019-03-27T11:07:02.294Z,6.30
2019-03-27T11:08:02.265Z,5.90
2019-03-27T11:09:02.237Z,7.70
2019-03-27T11:10:02.216Z,5.50
2019-03-27T11:11:02.194Z,6.50
2019-03-27T11:12:02.165Z,6.10
2019-03-27T11:13:02.143Z,7.20
2019-03-27T11:14:02.119Z,6.50
2019-03-27T11:15:02.097Z,6.50
2019-03-27T11:16:02.070Z,5.80
2019-03-27T11:17:02.048Z,6.40
2019-03-27T11:18:02.024Z,7.10
2019-03-27T11:19:01.998Z,5.70
2019-03-27T11:20:01.973Z,7.70
2019-03-27T11:21:01.949Z,5.40
2019-03-27T11:22:01.926Z,9.40
2019-03-27T11:23:01.900Z,10.60
2019-03-27T11:24:01.876Z,6.40
2019-03-27T11:25:01.865Z,4.00
2019-03-27T11:26:01.829Z,4.90
2019-03-27T11:27:01.822Z,6.30
2019-03-27T11:28:01.780Z,6.00
2019-03-27T11:29:01.757Z,6.80
2019-03-27T11:30:01.734Z,7.10
2019-03-27T11:31:01.709Z,8.00
2019-03-27T11:32:01.685Z,5.80
2019-03-27T11:33:01.661Z,5.60
2019-03-27T11:34:01.637Z,5.90
2019-03-27T11:35:01.612Z,7.50
2019-03-27T11:36:01.588Z,6.40
2019-03-27T11:37:01.564Z,9.30
2019-03-27T11:38:01.541Z,9.70
2019-03-27T11:39:01.516Z,6.70
2019-03-27T11:40:01.493Z,7.40
2019-03-27T11:41:01.470Z,7.00
2019-03-27T11:42:01.514Z,6.60
2019-03-27T11:43:01.423Z,7.20
2019-03-27T11:44:01.404Z,6.00
2019-03-27T11:45:01.379Z,6.10
2019-03-27T11:46:01.352Z,6.70
2019-03-27T11:47:01.328Z,6.60
2019-03-27T11:48:01.306Z,6.50
2019-03-27T11:49:01.282Z,7.40
2019-03-27T11:50:01.260Z,5.30
2019-03-27T11:51:01.236Z,7.50
2019-03-27T11:52:01.211Z,4.80
2019-03-27T11:53:01.189Z,6.40
2019-03-27T11:54:01.167Z,4.40
2019-03-27T11:55:01.143Z,6.70
2019-03-27T11:56:03.372Z,5.40
2019-03-27T11:57:01.100Z,7.20
2019-03-27T11:58:01.075Z,5.20
2019-03-27T11:59:01.048Z,7.00
2019-03-27T12:00:01.025Z,5.60
2019-03-27T12:01:01.004Z,6.20
2019-03-27T12:02:00.979Z,8.30
2019-03-27T12:03:00.956Z,4.50
2019-03-27T12:04:00.932Z,6.10
2019-03-27T12:05:00.910Z,4.10
2019-03-27T12:06:00.931Z,5.30
2019-03-27T12:07:00.865Z,4.90
2019-03-27T12:08:00.840Z,6.20
2019-03-27T12:09:00.817Z,7.20
2019-03-27T12:10:00.795Z,6.60
2019-03-27T12:11:00.773Z,7.60
2019-03-27T12:12:00.748Z,7.40
2019-03-27T12:13:00.725Z,5.80
2019-03-27T12:14:00.702Z,5.00
2019-03-27T12:15:00.680Z,6.10
2019-03-27T12:16:00.666Z,6.70
2019-03-27T12:17:00.632Z,7.10
2019-03-27T12:18:00.611Z,4.90
2019-03-27T12:19:00.586Z,5.60
2019-03-27T12:20:00.562Z,6.10
2019-03-27T12:21:00.539Z,5.90
2019-03-27T12:22:00.517Z,6.30
2019-03-27T12:23:00.493Z,6.10
2019-03-27T12:24:00.470Z,5.90
2019-03-27T12:25:00.523Z,5.30
2019-03-27T12:26:00.428Z,4.90
2019-03-27T12:27:00.401Z,4.90
2019-03-27T12:28:00.378Z,7.40
2019-03-27T12:29:00.355Z,5.20
2019-03-27T12:30:00.398Z,7.00
2019-03-27T12:31:00.307Z,5.90
2019-03-27T12:32:00.285Z,7.00
2019-03-27T12:33:00.265Z,6.10
2019-03-27T12:34:00.242Z,3.60
2019-03-27T12:35:00.336Z,5.20
2019-03-27T12:36:00.195Z,5.80
2019-03-27T12:37:00.174Z,3.40
2019-03-27T12:38:00.200Z,6.20
2019-03-27T12:39:00.125Z,5.30
2019-03-27T12:40:00.346Z,5.40
2019-03-27T12:41:00.081Z,4.30
2019-03-27T12:42:00.060Z,4.90
2019-03-27T12:43:00.035Z,5.20
2019-03-27T12:44:02.560Z,5.90
2019-03-27T12:45:01.767Z,5.30
2019-03-27T12:45:59.968Z,7.60
2019-03-27T12:46:59.946Z,5.80
2019-03-27T12:47:59.924Z,5.20
2019-03-27T12:48:59.903Z,6.00
2019-03-27T12:49:59.879Z,2.80
2019-03-27T12:51:12.229Z,4.40
2019-03-27T12:51:59.833Z,3.10
2019-03-27T12:52:59.811Z,4.50
2019-03-27T12:53:59.793Z,4.00
2019-03-27T12:54:59.766Z,3.40
2019-03-27T12:55:59.745Z,4.00
2019-03-27T12:56:59.722Z,5.40
2019-03-27T12:57:59.699Z,4.80